Beaver Creek Airport
CYXQ : now visible

Airfield :











YOU CAN JOIN US ON...

 
LOGIN :

Register | Disclaimer

   EN    FR    IT 

 









Legend :    VFR   Marginal VFR   IFR   Intensive IFR   Very Intensive IFR
Visi :
Ceiling :
>= 8 km
>= 3000ft
5 to 8 km
1000 to 3000 ft
1500m to 5 km
500 to 1000 ft
800 to 1500m
200 to 500 ft
< 800m
< 200 ft
Symbols :   Thunderstorms  Fog  Heavy snow  Heavy precipitations  Wind > 20 kt






- Airport Elevation : 2131 ft
- IATA code : YXQ


CYXQ - Beaver Creek

EXPIRED METARs :
  • 242200Z VRB02KT 20SM SCT080 OVC240 26/14 A2996 RMK AC3CI5 /FU/LAST STFD OBS/NXT 251600/ SLP151 DENSITY ALT 3900FT
  • 242100Z VRB03KT 15SM SCT090 OVC220 25/13 A2997 RMK AC4CI4 /FU/ SLP155 DENSITY ALT 3800FT
  • 242000Z 13003KT 20SM FEW045 BKN080 OVC240 24/13 A2999 RMK CU1AC4CI3 /FU/ SLP160 DENSITY ALT 3600FT

TAF N/A
CZEG FIR / North America



MET'MAP, your aeronautical weather chart ! - Copyright ORBIFLY December 2007 - Disclaimer

ORBIFLY MET'MAP TEAM :

Programming & Development : Alexandra Zaïnal
Original concept : Baudouin d'Aumeries
Technical & hardware support : Manuel Goepfert
Assistance : Marc-Olivier Méhu




SOURCES & CREDITS :

   NOAA       Earth
Advisory